AFR14DF LFPG-GMMN
Flight info
| Callsign | AFR14DF |
|---|---|
| Flight time | N/A |
| Altitude | 35000 |
| Route | AGOPA DCT ARKIP DCT ARMAL DCT ARTAX DCT BEBIX DCT LMG DCT UVELI DCT OSMOB DCT ARVID DCT PPN DCT NOLSA DCT ALEPO DCT VASUM DCT BANEV DCT BAN DCT GOTOR DCT KAMPO DCT MONTO DCT MOLIN DCT VJF N10 LINTO UN10 BARIS UB11 TUSOR |
| Aircraft | A21N/M-SDE3FGHIRWY/LB1 |
Departure
| Time | N/A |
|---|---|
| Airport | Charles de Gaulle International Airport (LFPG) |
Arrival
| Time | 2026-05-03 20:20 |
|---|---|
| Airport | Mohammed V International Airport (GMMN) |
| Time | Latitude | Longitude | Altitude | Speed | Heading |
|---|---|---|---|---|---|
| 2026-05-03 20:15 | 33.15631 | -7.51968 | 4069 ft | 184 kts | 342° |
| 2026-05-03 20:15 | 33.16861 | -7.52406 | 4027 ft | 184 kts | 344° |
| 2026-05-03 20:15 | 33.18097 | -7.52823 | 3992 ft | 184 kts | 344° |
| 2026-05-03 20:15 | 33.19330 | -7.53239 | 3808 ft | 184 kts | 344° |
| 2026-05-03 20:16 | 33.20551 | -7.53655 | 3563 ft | 182 kts | 345° |
| 2026-05-03 20:16 | 33.21770 | -7.54073 | 3325 ft | 180 kts | 345° |
| 2026-05-03 20:16 | 33.22954 | -7.54480 | 3083 ft | 174 kts | 345° |
| 2026-05-03 20:16 | 33.24081 | -7.54869 | 2836 ft | 160 kts | 345° |
| 2026-05-03 20:17 | 33.25101 | -7.55220 | 2618 ft | 148 kts | 345° |
| 2026-05-03 20:17 | 33.26092 | -7.55559 | 2472 ft | 147 kts | 345° |
| 2026-05-03 20:17 | 33.27075 | -7.55896 | 2289 ft | 146 kts | 345° |
| 2026-05-03 20:17 | 33.28048 | -7.56230 | 2103 ft | 143 kts | 345° |
| 2026-05-03 20:18 | 33.28969 | -7.56546 | 1901 ft | 136 kts | 345° |
| 2026-05-03 20:18 | 33.29889 | -7.56860 | 1719 ft | 135 kts | 344° |
| 2026-05-03 20:18 | 33.30796 | -7.57172 | 1555 ft | 134 kts | 344° |
| 2026-05-03 20:18 | 33.31694 | -7.57474 | 1414 ft | 135 kts | 346° |
| 2026-05-03 20:19 | 33.32606 | -7.57794 | 1203 ft | 135 kts | 346° |
| 2026-05-03 20:19 | 33.33495 | -7.58094 | 1032 ft | 134 kts | 344° |
| 2026-05-03 20:19 | 33.34401 | -7.58405 | 831 ft | 133 kts | 345° |
| 2026-05-03 20:19 | 33.35280 | -7.58704 | 688 ft | 132 kts | 344° |
| 2026-05-03 20:20 | 33.36101 | -7.58988 | 654 ft | 101 kts | 344° |
| 2026-05-03 20:20 | 33.36612 | -7.59164 | 648 ft | 52 kts | 345° |
| 2026-05-03 20:20 | 33.36910 | -7.59267 | 648 ft | 39 kts | 342° |
| 2026-05-03 20:20 | 33.37135 | -7.59323 | 648 ft | 27 kts | 4° |
| 2026-05-03 20:21 | 33.37297 | -7.59297 | 649 ft | 22 kts | 14° |
| 2026-05-03 20:21 | 33.37442 | -7.59256 | 650 ft | 20 kts | 13° |
| 2026-05-03 20:21 | 33.37579 | -7.59218 | 651 ft | 19 kts | 14° |
| 2026-05-03 20:21 | 33.37705 | -7.59180 | 651 ft | 13 kts | 14° |
| 2026-05-03 20:22 | 33.37783 | -7.59149 | 650 ft | 12 kts | 34° |
| 2026-05-03 20:22 | 33.37825 | -7.59058 | 649 ft | 13 kts | 75° |
| 2026-05-03 20:22 | 33.37854 | -7.58939 | 646 ft | 16 kts | 73° |
| 2026-05-03 20:22 | 33.37889 | -7.58798 | 643 ft | 18 kts | 74° |
| 2026-05-03 20:23 | 33.37912 | -7.58687 | 639 ft | 14 kts | 93° |
| 2026-05-03 20:23 | 33.37858 | -7.58575 | 635 ft | 17 kts | 130° |
| 2026-05-03 20:23 | 33.37792 | -7.58494 | 638 ft | 11 kts | 148° |
| 2026-05-03 20:23 | 33.37725 | -7.58463 | 640 ft | 9 kts | 164° |
| 2026-05-03 20:24 | 33.37657 | -7.58443 | 643 ft | 9 kts | 170° |
| 2026-05-03 20:24 | 33.37588 | -7.58435 | 645 ft | 9 kts | 169° |
| 2026-05-03 20:24 | 33.37525 | -7.58414 | 649 ft | 8 kts | 163° |
| 2026-05-03 20:24 | 33.37461 | -7.58391 | 654 ft | 10 kts | 163° |
| 2026-05-03 20:25 | 33.37397 | -7.58369 | 658 ft | 5 kts | 162° |
| 2026-05-03 20:25 | 33.37374 | -7.58351 | 659 ft | 3 kts | 110° |
| 2026-05-03 20:25 | 33.37379 | -7.58326 | 659 ft | 3 kts | 61° |
| 2026-05-03 20:25 | 33.37393 | -7.58291 | 659 ft | 5 kts | 72° |
| 2026-05-03 20:26 | 33.37398 | -7.58269 | 659 ft | 0 kts | 74° |